sensor_id;sensor_type;location;lat;lon;timestamp;temperature;humidity
21772;DHT22;11047;47.904;8.110;2024-02-21T00:01:16;1.50;99.90
21772;DHT22;11047;47.904;8.110;2024-02-21T00:03:43;1.40;99.90
21772;DHT22;11047;47.904;8.110;2024-02-21T00:06:09;1.40;99.90
21772;DHT22;11047;47.904;8.110;2024-02-21T00:08:36;1.20;99.90
21772;DHT22;11047;47.904;8.110;2024-02-21T00:11:03;1.30;99.90
21772;DHT22;11047;47.904;8.110;2024-02-21T00:13:30;1.30;99.90
21772;DHT22;11047;47.904;8.110;2024-02-21T00:16:00;1.30;99.90
21772;DHT22;11047;47.904;8.110;2024-02-21T00:18:27;1.30;99.90
21772;DHT22;11047;47.904;8.110;2024-02-21T00:20:54;1.40;99.90
21772;DHT22;11047;47.904;8.110;2024-02-21T00:23:21;1.40;99.90
21772;DHT22;11047;47.904;8.110;2024-02-21T00:25:48;1.50;99.90
21772;DHT22;11047;47.904;8.110;2024-02-21T00:28:15;1.50;99.90
21772;DHT22;11047;47.904;8.110;2024-02-21T00:30:42;1.50;99.90
21772;DHT22;11047;47.904;8.110;2024-02-21T00:33:10;1.60;99.90
21772;DHT22;11047;47.904;8.110;2024-02-21T00:35:37;1.90;99.90
21772;DHT22;11047;47.904;8.110;2024-02-21T00:38:04;1.60;99.90
21772;DHT22;11047;47.904;8.110;2024-02-21T00:40:31;1.60;99.90
21772;DHT22;11047;47.904;8.110;2024-02-21T00:42:58;1.70;99.90
21772;DHT22;11047;47.904;8.110;2024-02-21T00:45:25;1.70;99.90
21772;DHT22;11047;47.904;8.110;2024-02-21T00:47:52;1.70;99.90
21772;DHT22;11047;47.904;8.110;2024-02-21T00:50:20;1.70;99.90
21772;DHT22;11047;47.904;8.110;2024-02-21T00:52:47;1.70;99.90
21772;DHT22;11047;47.904;8.110;2024-02-21T00:55:14;1.70;99.90
21772;DHT22;11047;47.904;8.110;2024-02-21T00:57:41;1.70;99.90
21772;DHT22;11047;47.904;8.110;2024-02-21T01:00:09;1.70;99.90
21772;DHT22;11047;47.904;8.110;2024-02-21T01:02:36;1.70;99.90
21772;DHT22;11047;47.904;8.110;2024-02-21T01:05:03;1.90;99.90
21772;DHT22;11047;47.904;8.110;2024-02-21T01:07:31;1.70;99.90
21772;DHT22;11047;47.904;8.110;2024-02-21T01:09:58;1.80;99.90
21772;DHT22;11047;47.904;8.110;2024-02-21T01:12:25;1.80;99.90
21772;DHT22;11047;47.904;8.110;2024-02-21T01:14:52;1.70;99.90
21772;DHT22;11047;47.904;8.110;2024-02-21T01:17:18;1.80;99.90
21772;DHT22;11047;47.904;8.110;2024-02-21T01:19:46;1.80;99.90
21772;DHT22;11047;47.904;8.110;2024-02-21T01:22:13;1.70;99.90
21772;DHT22;11047;47.904;8.110;2024-02-21T01:24:41;1.80;99.90
21772;DHT22;11047;47.904;8.110;2024-02-21T01:27:08;2.00;99.90
21772;DHT22;11047;47.904;8.110;2024-02-21T01:29:35;1.80;99.90
21772;DHT22;11047;47.904;8.110;2024-02-21T01:32:03;1.90;99.90
21772;DHT22;11047;47.904;8.110;2024-02-21T01:34:29;1.80;99.90
21772;DHT22;11047;47.904;8.110;2024-02-21T01:36:56;1.90;99.90
21772;DHT22;11047;47.904;8.110;2024-02-21T01:39:24;1.80;99.90
21772;DHT22;11047;47.904;8.110;2024-02-21T01:41:52;1.70;99.90
21772;DHT22;11047;47.904;8.110;2024-02-21T01:44:19;1.80;99.90
21772;DHT22;11047;47.904;8.110;2024-02-21T01:46:46;1.80;99.90
21772;DHT22;11047;47.904;8.110;2024-02-21T01:49:13;1.80;99.90
21772;DHT22;11047;47.904;8.110;2024-02-21T01:51:40;1.70;99.90
21772;DHT22;11047;47.904;8.110;2024-02-21T01:54:07;1.80;99.90
21772;DHT22;11047;47.904;8.110;2024-02-21T01:56:35;1.70;99.90
21772;DHT22;11047;47.904;8.110;2024-02-21T01:59:03;1.60;99.90
21772;DHT22;11047;47.904;8.110;2024-02-21T02:01:30;1.60;99.90
21772;DHT22;11047;47.904;8.110;2024-02-21T02:03:57;1.70;99.90
21772;DHT22;11047;47.904;8.110;2024-02-21T02:06:25;1.70;99.90
21772;DHT22;11047;47.904;8.110;2024-02-21T02:08:52;1.70;99.90
21772;DHT22;11047;47.904;8.110;2024-02-21T02:11:20;1.80;99.90
21772;DHT22;11047;47.904;8.110;2024-02-21T02:13:47;1.90;99.90
21772;DHT22;11047;47.904;8.110;2024-02-21T02:16:15;1.90;99.90
21772;DHT22;11047;47.904;8.110;2024-02-21T02:18:42;1.80;99.90
21772;DHT22;11047;47.904;8.110;2024-02-21T02:21:15;1.90;99.90
21772;DHT22;11047;47.904;8.110;2024-02-21T02:23:48;1.90;99.90
21772;DHT22;11047;47.904;8.110;2024-02-21T02:26:15;1.90;99.90
21772;DHT22;11047;47.904;8.110;2024-02-21T02:28:42;1.80;99.90
21772;DHT22;11047;47.904;8.110;2024-02-21T02:31:09;1.90;99.90
21772;DHT22;11047;47.904;8.110;2024-02-21T02:33:36;1.90;99.90
21772;DHT22;11047;47.904;8.110;2024-02-21T02:36:04;1.90;99.90
21772;DHT22;11047;47.904;8.110;2024-02-21T02:38:31;1.90;99.90
21772;DHT22;11047;47.904;8.110;2024-02-21T02:40:59;1.90;99.90
21772;DHT22;11047;47.904;8.110;2024-02-21T02:43:26;2.00;99.90
21772;DHT22;11047;47.904;8.110;2024-02-21T02:45:53;2.00;99.90
21772;DHT22;11047;47.904;8.110;2024-02-21T02:48:21;2.00;99.90
21772;DHT22;11047;47.904;8.110;2024-02-21T02:50:48;1.90;99.90
21772;DHT22;11047;47.904;8.110;2024-02-21T02:53:15;1.90;99.90
21772;DHT22;11047;47.904;8.110;2024-02-21T02:55:42;2.00;99.90
21772;DHT22;11047;47.904;8.110;2024-02-21T02:58:10;2.00;99.90
21772;DHT22;11047;47.904;8.110;2024-02-21T03:00:37;2.00;99.90
21772;DHT22;11047;47.904;8.110;2024-02-21T03:03:05;2.10;99.90
21772;DHT22;11047;47.904;8.110;2024-02-21T03:05:32;2.10;99.90
21772;DHT22;11047;47.904;8.110;2024-02-21T03:07:59;2.10;99.90
21772;DHT22;11047;47.904;8.110;2024-02-21T03:10:25;2.10;99.90
21772;DHT22;11047;47.904;8.110;2024-02-21T03:12:52;2.10;99.90
21772;DHT22;11047;47.904;8.110;2024-02-21T03:15:20;2.10;99.90
21772;DHT22;11047;47.904;8.110;2024-02-21T03:17:47;2.10;99.90
21772;DHT22;11047;47.904;8.110;2024-02-21T03:20:14;2.20;99.90
21772;DHT22;11047;47.904;8.110;2024-02-21T03:22:41;2.10;99.90
21772;DHT22;11047;47.904;8.110;2024-02-21T03:25:08;2.20;99.90
21772;DHT22;11047;47.904;8.110;2024-02-21T03:27:36;2.20;99.90
21772;DHT22;11047;47.904;8.110;2024-02-21T03:30:04;2.20;99.90
21772;DHT22;11047;47.904;8.110;2024-02-21T03:32:32;2.00;99.90
21772;DHT22;11047;47.904;8.110;2024-02-21T03:34:59;1.90;99.90
21772;DHT22;11047;47.904;8.110;2024-02-21T03:37:26;1.90;99.90
21772;DHT22;11047;47.904;8.110;2024-02-21T03:39:53;1.80;99.90
21772;DHT22;11047;47.904;8.110;2024-02-21T03:42:19;1.80;99.90
21772;DHT22;11047;47.904;8.110;2024-02-21T03:44:46;1.80;99.90
21772;DHT22;11047;47.904;8.110;2024-02-21T03:47:13;1.80;99.90
21772;DHT22;11047;47.904;8.110;2024-02-21T03:49:41;1.90;99.90
21772;DHT22;11047;47.904;8.110;2024-02-21T03:52:08;1.90;99.90
21772;DHT22;11047;47.904;8.110;2024-02-21T03:54:36;1.90;99.90
21772;DHT22;11047;47.904;8.110;2024-02-21T03:57:04;1.90;99.90
21772;DHT22;11047;47.904;8.110;2024-02-21T03:59:31;1.90;99.90
21772;DHT22;11047;47.904;8.110;2024-02-21T04:01:58;2.00;99.90
21772;DHT22;11047;47.904;8.110;2024-02-21T04:04:26;1.90;99.90
21772;DHT22;11047;47.904;8.110;2024-02-21T04:06:54;1.90;99.90
21772;DHT22;11047;47.904;8.110;2024-02-21T04:09:21;1.90;99.90
21772;DHT22;11047;47.904;8.110;2024-02-21T04:11:48;1.90;99.90
21772;DHT22;11047;47.904;8.110;2024-02-21T04:14:14;1.90;99.90
21772;DHT22;11047;47.904;8.110;2024-02-21T04:16:41;1.90;99.90
21772;DHT22;11047;47.904;8.110;2024-02-21T04:19:08;1.90;99.90
21772;DHT22;11047;47.904;8.110;2024-02-21T04:21:35;1.90;99.90
21772;DHT22;11047;47.904;8.110;2024-02-21T04:24:03;1.90;99.90
21772;DHT22;11047;47.904;8.110;2024-02-21T04:26:31;1.90;99.90
21772;DHT22;11047;47.904;8.110;2024-02-21T04:28:58;1.90;99.90
21772;DHT22;11047;47.904;8.110;2024-02-21T04:31:24;1.90;99.90
21772;DHT22;11047;47.904;8.110;2024-02-21T04:33:51;1.90;99.90
21772;DHT22;11047;47.904;8.110;2024-02-21T04:36:18;1.90;99.90
21772;DHT22;11047;47.904;8.110;2024-02-21T04:38:45;1.90;99.90
21772;DHT22;11047;47.904;8.110;2024-02-21T04:41:13;1.70;99.90
21772;DHT22;11047;47.904;8.110;2024-02-21T04:43:40;1.60;99.90
21772;DHT22;11047;47.904;8.110;2024-02-21T04:46:07;1.60;99.90
21772;DHT22;11047;47.904;8.110;2024-02-21T04:48:35;1.60;99.90
21772;DHT22;11047;47.904;8.110;2024-02-21T04:51:02;1.70;99.90
21772;DHT22;11047;47.904;8.110;2024-02-21T04:53:29;1.80;99.90
21772;DHT22;11047;47.904;8.110;2024-02-21T04:55:56;1.70;99.90
21772;DHT22;11047;47.904;8.110;2024-02-21T04:58:25;1.70;99.90
21772;DHT22;11047;47.904;8.110;2024-02-21T05:00:52;1.60;99.90
21772;DHT22;11047;47.904;8.110;2024-02-21T05:03:20;1.60;99.90
21772;DHT22;11047;47.904;8.110;2024-02-21T05:05:47;1.80;99.90
21772;DHT22;11047;47.904;8.110;2024-02-21T05:08:14;1.70;99.90
21772;DHT22;11047;47.904;8.110;2024-02-21T05:10:40;1.60;99.90
21772;DHT22;11047;47.904;8.110;2024-02-21T05:13:07;1.40;99.90
21772;DHT22;11047;47.904;8.110;2024-02-21T05:15:36;1.50;99.90
21772;DHT22;11047;47.904;8.110;2024-02-21T05:18:03;1.50;99.90
21772;DHT22;11047;47.904;8.110;2024-02-21T05:20:30;1.50;99.90
21772;DHT22;11047;47.904;8.110;2024-02-21T05:22:57;1.50;99.90
21772;DHT22;11047;47.904;8.110;2024-02-21T05:25:23;1.40;99.90
21772;DHT22;11047;47.904;8.110;2024-02-21T05:27:51;1.40;99.90
21772;DHT22;11047;47.904;8.110;2024-02-21T05:30:19;1.50;99.90
21772;DHT22;11047;47.904;8.110;2024-02-21T05:32:47;1.40;99.90
21772;DHT22;11047;47.904;8.110;2024-02-21T05:35:14;1.40;99.90
21772;DHT22;11047;47.904;8.110;2024-02-21T05:37:41;1.40;99.90
21772;DHT22;11047;47.904;8.110;2024-02-21T05:40:09;1.20;99.90
21772;DHT22;11047;47.904;8.110;2024-02-21T05:42:37;1.10;99.90
21772;DHT22;11047;47.904;8.110;2024-02-21T05:45:05;1.20;99.90
21772;DHT22;11047;47.904;8.110;2024-02-21T05:47:32;1.10;99.90
21772;DHT22;11047;47.904;8.110;2024-02-21T05:50:00;1.10;99.90
21772;DHT22;11047;47.904;8.110;2024-02-21T05:52:27;1.20;99.90
21772;DHT22;11047;47.904;8.110;2024-02-21T05:54:54;1.20;99.90
21772;DHT22;11047;47.904;8.110;2024-02-21T05:57:21;1.30;99.90
21772;DHT22;11047;47.904;8.110;2024-02-21T05:59:47;1.30;99.90
21772;DHT22;11047;47.904;8.110;2024-02-21T06:02:14;1.30;99.90
21772;DHT22;11047;47.904;8.110;2024-02-21T06:04:41;1.30;99.90
21772;DHT22;11047;47.904;8.110;2024-02-21T06:07:11;1.30;99.90
21772;DHT22;11047;47.904;8.110;2024-02-21T06:09:38;1.20;99.90
21772;DHT22;11047;47.904;8.110;2024-02-21T06:12:05;1.30;99.90
21772;DHT22;11047;47.904;8.110;2024-02-21T06:14:32;1.00;99.90
21772;DHT22;11047;47.904;8.110;2024-02-21T06:16:59;1.10;99.90
21772;DHT22;11047;47.904;8.110;2024-02-21T06:19:26;1.10;99.90
21772;DHT22;11047;47.904;8.110;2024-02-21T06:21:52;1.10;99.90
21772;DHT22;11047;47.904;8.110;2024-02-21T06:24:21;1.10;99.90
21772;DHT22;11047;47.904;8.110;2024-02-21T06:26:48;1.20;99.90
21772;DHT22;11047;47.904;8.110;2024-02-21T06:29:15;1.20;99.90
21772;DHT22;11047;47.904;8.110;2024-02-21T06:31:42;1.20;99.90
21772;DHT22;11047;47.904;8.110;2024-02-21T06:34:08;1.20;99.90
21772;DHT22;11047;47.904;8.110;2024-02-21T06:36:35;1.20;99.90
21772;DHT22;11047;47.904;8.110;2024-02-21T06:39:02;1.20;99.90
21772;DHT22;11047;47.904;8.110;2024-02-21T06:41:43;1.20;99.90
21772;DHT22;11047;47.904;8.110;2024-02-21T06:44:10;1.10;99.90
21772;DHT22;11047;47.904;8.110;2024-02-21T06:46:37;1.00;99.90
21772;DHT22;11047;47.904;8.110;2024-02-21T06:49:04;1.00;99.90
21772;DHT22;11047;47.904;8.110;2024-02-21T06:51:31;1.10;99.90
21772;DHT22;11047;47.904;8.110;2024-02-21T06:53:58;1.10;99.90
21772;DHT22;11047;47.904;8.110;2024-02-21T06:56:25;1.10;99.90
21772;DHT22;11047;47.904;8.110;2024-02-21T06:58:55;1.10;99.90
21772;DHT22;11047;47.904;8.110;2024-02-21T07:01:22;1.30;99.90
21772;DHT22;11047;47.904;8.110;2024-02-21T07:03:49;1.30;99.90
21772;DHT22;11047;47.904;8.110;2024-02-21T07:06:16;1.40;99.90
21772;DHT22;11047;47.904;8.110;2024-02-21T07:08:44;1.40;99.90
21772;DHT22;11047;47.904;8.110;2024-02-21T07:11:12;1.50;99.90
21772;DHT22;11047;47.904;8.110;2024-02-21T07:13:40;1.60;99.90
21772;DHT22;11047;47.904;8.110;2024-02-21T07:16:08;1.60;99.90
21772;DHT22;11047;47.904;8.110;2024-02-21T07:18:47;1.70;99.90
21772;DHT22;11047;47.904;8.110;2024-02-21T07:21:14;1.60;99.90
21772;DHT22;11047;47.904;8.110;2024-02-21T07:23:43;1.70;99.90
21772;DHT22;11047;47.904;8.110;2024-02-21T07:26:16;1.80;99.90
21772;DHT22;11047;47.904;8.110;2024-02-21T07:28:49;1.80;99.90
21772;DHT22;11047;47.904;8.110;2024-02-21T07:34:22;1.90;99.90
21772;DHT22;11047;47.904;8.110;2024-02-21T07:36:49;2.10;99.90
21772;DHT22;11047;47.904;8.110;2024-02-21T07:39:16;2.20;99.90
21772;DHT22;11047;47.904;8.110;2024-02-21T07:41:50;2.20;99.90
21772;DHT22;11047;47.904;8.110;2024-02-21T07:44:23;2.20;99.90
21772;DHT22;11047;47.904;8.110;2024-02-21T07:46:50;2.30;99.90
21772;DHT22;11047;47.904;8.110;2024-02-21T07:49:17;2.40;99.90
21772;DHT22;11047;47.904;8.110;2024-02-21T07:51:46;2.50;99.90
21772;DHT22;11047;47.904;8.110;2024-02-21T07:54:13;2.50;99.90
21772;DHT22;11047;47.904;8.110;2024-02-21T07:56:40;2.40;99.90
21772;DHT22;11047;47.904;8.110;2024-02-21T07:59:07;2.40;99.90
21772;DHT22;11047;47.904;8.110;2024-02-21T08:01:34;2.40;99.90
21772;DHT22;11047;47.904;8.110;2024-02-21T08:04:01;2.50;99.90
21772;DHT22;11047;47.904;8.110;2024-02-21T08:06:30;2.40;99.90
21772;DHT22;11047;47.904;8.110;2024-02-21T08:08:59;2.50;99.90
21772;DHT22;11047;47.904;8.110;2024-02-21T08:11:26;2.60;99.90
21772;DHT22;11047;47.904;8.110;2024-02-21T08:13:53;2.70;99.90
21772;DHT22;11047;47.904;8.110;2024-02-21T08:16:19;2.80;99.90
21772;DHT22;11047;47.904;8.110;2024-02-21T08:18:47;2.80;99.90
21772;DHT22;11047;47.904;8.110;2024-02-21T08:21:14;3.00;99.90
21772;DHT22;11047;47.904;8.110;2024-02-21T08:23:42;3.00;99.90
21772;DHT22;11047;47.904;8.110;2024-02-21T08:26:14;3.10;99.90
21772;DHT22;11047;47.904;8.110;2024-02-21T08:28:41;3.30;99.90
21772;DHT22;11047;47.904;8.110;2024-02-21T08:31:08;3.30;99.90
21772;DHT22;11047;47.904;8.110;2024-02-21T08:33:34;3.30;99.90
21772;DHT22;11047;47.904;8.110;2024-02-21T08:36:01;3.50;99.90
21772;DHT22;11047;47.904;8.110;2024-02-21T08:38:28;3.50;99.90
21772;DHT22;11047;47.904;8.110;2024-02-21T08:40:55;3.60;99.90
21772;DHT22;11047;47.904;8.110;2024-02-21T08:43:24;3.70;99.90
21772;DHT22;11047;47.904;8.110;2024-02-21T08:45:50;3.80;99.90
21772;DHT22;11047;47.904;8.110;2024-02-21T08:48:17;4.10;99.90
21772;DHT22;11047;47.904;8.110;2024-02-21T08:50:44;4.30;99.90
21772;DHT22;11047;47.904;8.110;2024-02-21T08:53:11;4.40;99.90
21772;DHT22;11047;47.904;8.110;2024-02-21T08:55:39;4.40;99.90
21772;DHT22;11047;47.904;8.110;2024-02-21T08:58:14;4.60;99.90
21772;DHT22;11047;47.904;8.110;2024-02-21T09:00:43;4.80;99.90
21772;DHT22;11047;47.904;8.110;2024-02-21T09:03:09;5.10;99.90
21772;DHT22;11047;47.904;8.110;2024-02-21T09:05:36;5.40;99.90
21772;DHT22;11047;47.904;8.110;2024-02-21T09:08:04;5.50;99.90
21772;DHT22;11047;47.904;8.110;2024-02-21T09:10:31;5.60;99.90
21772;DHT22;11047;47.904;8.110;2024-02-21T09:12:58;5.90;99.90
21772;DHT22;11047;47.904;8.110;2024-02-21T09:15:25;6.30;99.90
21772;DHT22;11047;47.904;8.110;2024-02-21T09:17:53;6.70;99.90
21772;DHT22;11047;47.904;8.110;2024-02-21T09:20:20;6.90;99.90
21772;DHT22;11047;47.904;8.110;2024-02-21T09:22:47;7.30;99.90
21772;DHT22;11047;47.904;8.110;2024-02-21T09:25:14;7.50;99.90
21772;DHT22;11047;47.904;8.110;2024-02-21T09:27:41;7.60;99.90
21772;DHT22;11047;47.904;8.110;2024-02-21T09:30:08;7.80;99.90
21772;DHT22;11047;47.904;8.110;2024-02-21T09:32:46;8.10;99.90
21772;DHT22;11047;47.904;8.110;2024-02-21T09:35:14;8.30;99.90
21772;DHT22;11047;47.904;8.110;2024-02-21T09:37:41;9.10;99.90
21772;DHT22;11047;47.904;8.110;2024-02-21T09:40:09;9.50;99.90
21772;DHT22;11047;47.904;8.110;2024-02-21T09:42:41;9.80;99.90
21772;DHT22;11047;47.904;8.110;2024-02-21T09:45:09;10.00;99.90
21772;DHT22;11047;47.904;8.110;2024-02-21T09:47:47;10.50;99.90
21772;DHT22;11047;47.904;8.110;2024-02-21T09:50:19;10.70;99.90
21772;DHT22;11047;47.904;8.110;2024-02-21T09:52:48;10.70;99.90
21772;DHT22;11047;47.904;8.110;2024-02-21T09:55:18;10.60;99.90
21772;DHT22;11047;47.904;8.110;2024-02-21T09:57:45;10.70;99.90
21772;DHT22;11047;47.904;8.110;2024-02-21T10:00:13;10.70;99.90
21772;DHT22;11047;47.904;8.110;2024-02-21T10:02:47;10.70;99.90
21772;DHT22;11047;47.904;8.110;2024-02-21T10:05:14;10.60;99.90
21772;DHT22;11047;47.904;8.110;2024-02-21T10:07:42;10.50;99.90
21772;DHT22;11047;47.904;8.110;2024-02-21T10:10:09;10.40;99.90
21772;DHT22;11047;47.904;8.110;2024-02-21T10:12:37;10.30;99.90
21772;DHT22;11047;47.904;8.110;2024-02-21T10:15:14;10.30;99.90
21772;DHT22;11047;47.904;8.110;2024-02-21T10:17:46;10.40;99.90
21772;DHT22;11047;47.904;8.110;2024-02-21T10:20:13;10.40;99.90
21772;DHT22;11047;47.904;8.110;2024-02-21T10:22:42;10.40;99.90
21772;DHT22;11047;47.904;8.110;2024-02-21T10:25:09;10.40;99.90
21772;DHT22;11047;47.904;8.110;2024-02-21T10:27:36;10.40;99.90
21772;DHT22;11047;47.904;8.110;2024-02-21T10:30:04;10.50;99.90
21772;DHT22;11047;47.904;8.110;2024-02-21T10:32:31;10.60;99.90
21772;DHT22;11047;47.904;8.110;2024-02-21T10:35:02;10.60;99.90
21772;DHT22;11047;47.904;8.110;2024-02-21T10:37:30;10.60;99.90
21772;DHT22;11047;47.904;8.110;2024-02-21T10:39:58;10.80;99.90
21772;DHT22;11047;47.904;8.110;2024-02-21T10:42:27;10.80;99.90
21772;DHT22;11047;47.904;8.110;2024-02-21T10:45:00;10.80;99.90
21772;DHT22;11047;47.904;8.110;2024-02-21T10:47:32;10.90;99.90
21772;DHT22;11047;47.904;8.110;2024-02-21T10:50:03;11.00;99.90
21772;DHT22;11047;47.904;8.110;2024-02-21T10:52:38;10.90;99.90
21772;DHT22;11047;47.904;8.110;2024-02-21T10:55:11;10.90;99.90
21772;DHT22;11047;47.904;8.110;2024-02-21T10:57:43;11.00;99.90
21772;DHT22;11047;47.904;8.110;2024-02-21T11:00:10;11.20;99.90
21772;DHT22;11047;47.904;8.110;2024-02-21T11:02:38;11.20;99.90
21772;DHT22;11047;47.904;8.110;2024-02-21T11:05:06;11.20;99.90
21772;DHT22;11047;47.904;8.110;2024-02-21T11:07:37;11.20;99.90
21772;DHT22;11047;47.904;8.110;2024-02-21T11:10:04;11.30;99.90
21772;DHT22;11047;47.904;8.110;2024-02-21T11:12:34;11.30;99.90
21772;DHT22;11047;47.904;8.110;2024-02-21T11:15:06;11.20;99.90
21772;DHT22;11047;47.904;8.110;2024-02-21T11:17:34;11.30;99.90
21772;DHT22;11047;47.904;8.110;2024-02-21T11:20:11;11.30;99.90
21772;DHT22;11047;47.904;8.110;2024-02-21T11:22:41;11.20;99.90
21772;DHT22;11047;47.904;8.110;2024-02-21T11:25:09;11.20;99.90
21772;DHT22;11047;47.904;8.110;2024-02-21T11:27:38;11.20;99.90
21772;DHT22;11047;47.904;8.110;2024-02-21T11:30:06;11.20;99.90
21772;DHT22;11047;47.904;8.110;2024-02-21T11:32:36;11.30;99.90
21772;DHT22;11047;47.904;8.110;2024-02-21T11:35:04;11.30;99.90
21772;DHT22;11047;47.904;8.110;2024-02-21T11:37:33;11.50;99.90
21772;DHT22;11047;47.904;8.110;2024-02-21T11:40:03;11.50;99.90
21772;DHT22;11047;47.904;8.110;2024-02-21T11:42:32;11.50;99.90
21772;DHT22;11047;47.904;8.110;2024-02-21T11:45:00;11.50;99.90
21772;DHT22;11047;47.904;8.110;2024-02-21T11:47:28;11.40;99.90
21772;DHT22;11047;47.904;8.110;2024-02-21T11:49:55;11.50;99.90
21772;DHT22;11047;47.904;8.110;2024-02-21T11:52:23;11.60;99.90
21772;DHT22;11047;47.904;8.110;2024-02-21T11:54:52;11.60;99.90
21772;DHT22;11047;47.904;8.110;2024-02-21T11:57:20;11.60;99.90
21772;DHT22;11047;47.904;8.110;2024-02-21T11:59:47;11.60;99.90
21772;DHT22;11047;47.904;8.110;2024-02-21T12:02:16;11.70;99.90
21772;DHT22;11047;47.904;8.110;2024-02-21T12:04:44;11.60;99.90
21772;DHT22;11047;47.904;8.110;2024-02-21T12:07:11;11.60;99.90
21772;DHT22;11047;47.904;8.110;2024-02-21T12:09:38;11.70;99.90
21772;DHT22;11047;47.904;8.110;2024-02-21T12:12:05;11.70;99.90
21772;DHT22;11047;47.904;8.110;2024-02-21T12:14:34;11.70;99.90
21772;DHT22;11047;47.904;8.110;2024-02-21T12:17:02;11.70;99.90
21772;DHT22;11047;47.904;8.110;2024-02-21T12:19:33;11.70;99.90
21772;DHT22;11047;47.904;8.110;2024-02-21T12:22:00;11.60;99.90
21772;DHT22;11047;47.904;8.110;2024-02-21T12:24:31;11.50;99.90
21772;DHT22;11047;47.904;8.110;2024-02-21T12:26:58;11.50;99.50
21772;DHT22;11047;47.904;8.110;2024-02-21T12:29:25;11.40;99.30
21772;DHT22;11047;47.904;8.110;2024-02-21T12:31:52;11.40;99.80
21772;DHT22;11047;47.904;8.110;2024-02-21T12:34:20;11.40;99.90
21772;DHT22;11047;47.904;8.110;2024-02-21T12:36:49;11.40;99.40
21772;DHT22;11047;47.904;8.110;2024-02-21T12:39:17;11.40;97.90
21772;DHT22;11047;47.904;8.110;2024-02-21T12:41:44;11.40;96.00
21772;DHT22;11047;47.904;8.110;2024-02-21T12:44:11;11.40;98.00
21772;DHT22;11047;47.904;8.110;2024-02-21T12:46:38;11.60;98.10
21772;DHT22;11047;47.904;8.110;2024-02-21T12:49:05;11.50;99.90
21772;DHT22;11047;47.904;8.110;2024-02-21T12:51:33;11.50;98.10
21772;DHT22;11047;47.904;8.110;2024-02-21T12:54:02;11.60;97.00
21772;DHT22;11047;47.904;8.110;2024-02-21T12:56:37;11.60;96.80
21772;DHT22;11047;47.904;8.110;2024-02-21T12:59:05;11.50;96.90
21772;DHT22;11047;47.904;8.110;2024-02-21T13:01:44;11.50;95.10
21772;DHT22;11047;47.904;8.110;2024-02-21T13:04:11;11.50;95.80
21772;DHT22;11047;47.904;8.110;2024-02-21T13:06:38;11.50;96.80
21772;DHT22;11047;47.904;8.110;2024-02-21T13:09:06;11.60;97.10
21772;DHT22;11047;47.904;8.110;2024-02-21T13:11:36;11.60;97.90
21772;DHT22;11047;47.904;8.110;2024-02-21T13:14:03;11.50;96.80
21772;DHT22;11047;47.904;8.110;2024-02-21T13:16:30;11.50;95.40
21772;DHT22;11047;47.904;8.110;2024-02-21T13:18:57;11.50;95.90
21772;DHT22;11047;47.904;8.110;2024-02-21T13:21:24;11.50;96.80
21772;DHT22;11047;47.904;8.110;2024-02-21T13:23:51;11.50;95.50
21772;DHT22;11047;47.904;8.110;2024-02-21T13:26:19;11.40;96.20
21772;DHT22;11047;47.904;8.110;2024-02-21T13:28:46;11.40;96.60
21772;DHT22;11047;47.904;8.110;2024-02-21T13:31:13;11.40;96.40
21772;DHT22;11047;47.904;8.110;2024-02-21T13:33:42;11.40;97.70
21772;DHT22;11047;47.904;8.110;2024-02-21T13:36:09;11.20;96.40
21772;DHT22;11047;47.904;8.110;2024-02-21T13:38:37;11.30;96.70
21772;DHT22;11047;47.904;8.110;2024-02-21T13:41:11;11.30;96.20
21772;DHT22;11047;47.904;8.110;2024-02-21T13:43:47;11.30;98.10
21772;DHT22;11047;47.904;8.110;2024-02-21T13:46:14;11.30;98.50
21772;DHT22;11047;47.904;8.110;2024-02-21T13:48:41;11.30;97.20
21772;DHT22;11047;47.904;8.110;2024-02-21T13:51:08;11.30;98.80
21772;DHT22;11047;47.904;8.110;2024-02-21T13:53:35;11.40;99.90
21772;DHT22;11047;47.904;8.110;2024-02-21T13:56:02;11.40;99.90
21772;DHT22;11047;47.904;8.110;2024-02-21T13:58:28;11.40;98.30
21772;DHT22;11047;47.904;8.110;2024-02-21T14:00:57;11.40;98.60
21772;DHT22;11047;47.904;8.110;2024-02-21T14:03:24;11.40;96.70
21772;DHT22;11047;47.904;8.110;2024-02-21T14:05:51;11.40;97.30
21772;DHT22;11047;47.904;8.110;2024-02-21T14:08:18;11.40;98.60
21772;DHT22;11047;47.904;8.110;2024-02-21T14:10:52;11.50;97.70
21772;DHT22;11047;47.904;8.110;2024-02-21T14:13:18;11.50;99.40
21772;DHT22;11047;47.904;8.110;2024-02-21T14:15:46;11.40;99.90
21772;DHT22;11047;47.904;8.110;2024-02-21T14:18:15;11.50;99.20
21772;DHT22;11047;47.904;8.110;2024-02-21T14:20:43;11.50;99.30
21772;DHT22;11047;47.904;8.110;2024-02-21T14:23:09;11.40;99.90
21772;DHT22;11047;47.904;8.110;2024-02-21T14:25:38;11.40;99.90
21772;DHT22;11047;47.904;8.110;2024-02-21T14:28:05;11.40;99.90
21772;DHT22;11047;47.904;8.110;2024-02-21T14:30:34;11.40;99.90
21772;DHT22;11047;47.904;8.110;2024-02-21T14:33:01;11.40;99.90
21772;DHT22;11047;47.904;8.110;2024-02-21T14:35:30;11.50;99.90
21772;DHT22;11047;47.904;8.110;2024-02-21T14:37:56;11.50;99.90
21772;DHT22;11047;47.904;8.110;2024-02-21T14:40:23;11.60;99.90
21772;DHT22;11047;47.904;8.110;2024-02-21T14:42:50;11.70;99.90
21772;DHT22;11047;47.904;8.110;2024-02-21T14:45:18;11.80;99.90
21772;DHT22;11047;47.904;8.110;2024-02-21T14:47:45;11.80;99.90
21772;DHT22;11047;47.904;8.110;2024-02-21T14:50:12;11.80;99.90
21772;DHT22;11047;47.904;8.110;2024-02-21T14:52:40;11.80;99.90
21772;DHT22;11047;47.904;8.110;2024-02-21T14:55:07;11.70;99.90
21772;DHT22;11047;47.904;8.110;2024-02-21T14:57:34;11.50;99.90
21772;DHT22;11047;47.904;8.110;2024-02-21T15:00:06;11.50;99.90
21772;DHT22;11047;47.904;8.110;2024-02-21T15:02:34;11.40;99.90
21772;DHT22;11047;47.904;8.110;2024-02-21T15:05:01;11.50;99.90
21772;DHT22;11047;47.904;8.110;2024-02-21T15:07:29;11.50;99.90
21772;DHT22;11047;47.904;8.110;2024-02-21T15:09:57;11.40;99.90
21772;DHT22;11047;47.904;8.110;2024-02-21T15:12:24;11.40;99.90
21772;DHT22;11047;47.904;8.110;2024-02-21T15:14:51;11.30;99.90
21772;DHT22;11047;47.904;8.110;2024-02-21T15:17:18;11.20;99.90
21772;DHT22;11047;47.904;8.110;2024-02-21T15:19:46;11.30;99.90
21772;DHT22;11047;47.904;8.110;2024-02-21T15:22:15;11.20;99.90
21772;DHT22;11047;47.904;8.110;2024-02-21T15:24:43;11.10;99.70
21772;DHT22;11047;47.904;8.110;2024-02-21T15:27:13;11.00;99.90
21772;DHT22;11047;47.904;8.110;2024-02-21T15:29:40;10.90;99.90
21772;DHT22;11047;47.904;8.110;2024-02-21T15:32:07;10.80;99.90
21772;DHT22;11047;47.904;8.110;2024-02-21T15:34:34;10.70;99.90
21772;DHT22;11047;47.904;8.110;2024-02-21T15:37:01;10.80;99.90
21772;DHT22;11047;47.904;8.110;2024-02-21T15:39:29;10.70;99.90
21772;DHT22;11047;47.904;8.110;2024-02-21T15:41:56;10.70;99.90
21772;DHT22;11047;47.904;8.110;2024-02-21T15:44:25;10.60;99.90
21772;DHT22;11047;47.904;8.110;2024-02-21T15:46:52;10.60;99.90